Terminal Aerodrome Forecast
Issued by NWS

Home | Current Version | Previous Version | Text Only | Print | Product List | Glossary Off
Versions: 1 2 3 4 5 6 7 8 9 10 11 12 13 14 15

000
FTUS43 KICT 231120
TAFHUT
TAF
KHUT 231120Z 2312/2412 20004KT P6SM SKC
     FM231800 24011KT P6SM SKC
     FM240100 28005KT P6SM BKN100
     FM240400 32010KT P6SM SCT100=

USA.gov is the U.S. government's official web portal to all federal, state and local government web resources and services.